createdAt,value
2023-02-26T00:01:34.354Z,-0.20
2023-02-26T00:04:23.826Z,-0.20
2023-02-26T00:07:13.473Z,-0.20
2023-02-26T00:10:04.097Z,-0.20
2023-02-26T00:12:54.394Z,-0.20
2023-02-26T00:15:45.356Z,-0.30
2023-02-26T00:18:37.170Z,-0.30
2023-02-26T00:21:28.667Z,-0.30
2023-02-26T00:24:18.634Z,-0.30
2023-02-26T00:27:08.206Z,-0.30
2023-02-26T00:29:58.575Z,-0.30
2023-02-26T00:32:49.199Z,-0.40
2023-02-26T00:35:40.929Z,-0.40
2023-02-26T00:38:34.405Z,-0.30
2023-02-26T00:41:24.715Z,-0.20
2023-02-26T00:44:15.248Z,-0.20
2023-02-26T00:47:11.897Z,-0.20
2023-02-26T00:50:11.882Z,-0.30
2023-02-26T00:53:14.318Z,-0.40
2023-02-26T00:56:03.972Z,-0.40
2023-02-26T00:58:53.724Z,-0.50
2023-02-26T01:01:43.615Z,-0.60
2023-02-26T01:04:34.088Z,-0.70
2023-02-26T01:07:26.835Z,-0.80
2023-02-26T01:10:18.601Z,-0.80
2023-02-26T01:13:08.731Z,-0.70
2023-02-26T01:16:02.735Z,-0.60
2023-02-26T01:18:58.386Z,-0.50
2023-02-26T01:21:52.486Z,-0.40
2023-02-26T01:24:42.661Z,-0.40
2023-02-26T01:27:34.826Z,-0.50
2023-02-26T01:30:25.755Z,-0.40
2023-02-26T01:33:24.007Z,-0.40
2023-02-26T01:36:22.064Z,-0.30
2023-02-26T01:39:18.189Z,-0.30
2023-02-26T01:42:18.339Z,-0.30
2023-02-26T01:45:15.565Z,-0.20
2023-02-26T01:48:08.377Z,-0.20
2023-02-26T01:50:58.417Z,-0.20
2023-02-26T01:53:48.226Z,-0.30
2023-02-26T01:56:38.944Z,-0.30
2023-02-26T01:59:29.050Z,-0.30
2023-02-26T02:02:23.566Z,-0.40
2023-02-26T02:05:18.777Z,-0.40
2023-02-26T02:08:08.696Z,-0.50
2023-02-26T02:10:58.590Z,-0.40
2023-02-26T02:14:03.188Z,-0.40
2023-02-26T02:17:00.900Z,-0.40
2023-02-26T02:20:20.353Z,-0.40
2023-02-26T02:23:17.509Z,-0.30
2023-02-26T02:26:41.266Z,-0.40
2023-02-26T02:30:06.910Z,-0.40
2023-02-26T02:33:01.309Z,-0.40
2023-02-26T02:35:55.066Z,-0.30
2023-02-26T02:38:50.485Z,-0.30
2023-02-26T02:41:45.116Z,-0.20
2023-02-26T02:44:39.723Z,-0.30
2023-02-26T02:47:32.926Z,-0.30
2023-02-26T02:50:29.705Z,-0.30
2023-02-26T02:53:25.382Z,-0.30
2023-02-26T02:56:19.437Z,-0.40
2023-02-26T02:59:17.117Z,-0.30
2023-02-26T03:02:12.168Z,-0.40
2023-02-26T03:05:01.991Z,-0.50
2023-02-26T03:07:57.246Z,-0.50
2023-02-26T03:10:47.309Z,-0.60
2023-02-26T03:13:37.210Z,-0.60
2023-02-26T03:16:50.476Z,-0.60
2023-02-26T03:19:51.348Z,-0.60
2023-02-26T03:22:46.530Z,-0.60
2023-02-26T03:25:47.111Z,-0.60
2023-02-26T03:28:43.904Z,-0.70
2023-02-26T03:31:38.281Z,-0.70
2023-02-26T03:34:34.272Z,-0.70
2023-02-26T03:37:28.732Z,-0.70
2023-02-26T03:40:22.424Z,-0.60
2023-02-26T03:43:18.298Z,-0.60
2023-02-26T03:46:14.676Z,-0.60
2023-02-26T03:49:08.998Z,-0.60
2023-02-26T03:52:01.922Z,-0.60
2023-02-26T03:54:57.899Z,-0.60
2023-02-26T03:57:48.595Z,-0.60
2023-02-26T04:00:43.283Z,-0.70
2023-02-26T04:03:37.649Z,-0.70
2023-02-26T04:06:28.242Z,-0.70
2023-02-26T04:09:18.403Z,-0.70
2023-02-26T04:12:08.562Z,-0.60
2023-02-26T04:14:59.831Z,-0.70
2023-02-26T04:17:50.776Z,-0.60
2023-02-26T04:20:40.652Z,-0.70
2023-02-26T04:23:30.222Z,-0.70
2023-02-26T04:26:20.078Z,-0.70
2023-02-26T04:29:09.691Z,-0.80
2023-02-26T04:31:59.692Z,-0.90
2023-02-26T04:34:50.873Z,-0.90
2023-02-26T04:37:40.547Z,-0.80
2023-02-26T04:40:30.400Z,-0.80
2023-02-26T04:43:20.925Z,-0.90
2023-02-26T04:46:10.682Z,-0.90
2023-02-26T04:49:00.419Z,-0.90
2023-02-26T04:51:52.246Z,-0.90
2023-02-26T04:54:42.286Z,-0.80
2023-02-26T04:57:32.236Z,-0.80
2023-02-26T05:00:22.660Z,-0.80
2023-02-26T05:03:14.055Z,-0.80
2023-02-26T05:06:03.725Z,-0.80
2023-02-26T05:08:54.851Z,-0.80
2023-02-26T05:11:44.389Z,-0.80
2023-02-26T05:14:34.357Z,-0.80
2023-02-26T05:17:23.971Z,-0.80
2023-02-26T05:20:16.129Z,-0.80
2023-02-26T05:23:05.656Z,-0.80
2023-02-26T05:25:58.988Z,-0.80
2023-02-26T05:28:48.564Z,-0.70
2023-02-26T05:31:38.224Z,-0.80
2023-02-26T05:34:27.828Z,-0.70
2023-02-26T05:37:17.317Z,-0.70
2023-02-26T05:40:09.912Z,-0.60
2023-02-26T05:43:00.930Z,-0.60
2023-02-26T05:45:52.458Z,-0.50
2023-02-26T05:48:43.552Z,-0.50
2023-02-26T05:51:34.288Z,-0.50
2023-02-26T05:54:23.936Z,-0.50
2023-02-26T05:57:13.487Z,-0.50
2023-02-26T06:00:05.897Z,-0.60
2023-02-26T06:02:55.811Z,-0.60
2023-02-26T06:05:45.354Z,-0.60
2023-02-26T06:08:35.210Z,-0.60
2023-02-26T06:11:24.946Z,-0.60
2023-02-26T06:14:14.705Z,-0.60
2023-02-26T06:17:06.038Z,-0.60
2023-02-26T06:19:55.972Z,-0.60
2023-02-26T06:22:45.514Z,-0.60
2023-02-26T06:25:34.984Z,-0.50
2023-02-26T06:28:25.226Z,-0.50
2023-02-26T06:31:14.931Z,-0.40
2023-02-26T06:34:06.250Z,-0.30
2023-02-26T06:36:56.178Z,-0.20
2023-02-26T06:39:45.711Z,-0.20
2023-02-26T06:42:35.247Z,-0.30
2023-02-26T06:45:25.836Z,-0.20
2023-02-26T06:48:15.302Z,-0.20
2023-02-26T06:51:07.707Z,-0.30
2023-02-26T06:53:57.901Z,-0.30
2023-02-26T06:56:47.621Z,-0.20
2023-02-26T06:59:37.374Z,0.00
2023-02-26T07:02:26.989Z,0.10
2023-02-26T07:05:16.593Z,0.20
2023-02-26T07:08:07.888Z,0.30
2023-02-26T07:10:57.522Z,0.20
2023-02-26T07:13:47.215Z,0.20
2023-02-26T07:16:37.666Z,0.20
2023-02-26T07:19:27.327Z,0.20
2023-02-26T07:22:19.033Z,0.20
2023-02-26T07:25:12.258Z,0.30
2023-02-26T07:28:01.975Z,0.30
2023-02-26T07:30:51.444Z,0.30
2023-02-26T07:33:41.391Z,0.40
2023-02-26T07:36:31.082Z,0.40
2023-02-26T07:39:20.733Z,0.50
2023-02-26T07:42:11.860Z,0.50
2023-02-26T07:45:01.737Z,0.60
2023-02-26T07:47:51.227Z,0.70
2023-02-26T07:50:40.819Z,0.80
2023-02-26T07:53:30.350Z,0.80
2023-02-26T07:56:20.688Z,0.90
2023-02-26T07:59:12.634Z,1.00
2023-02-26T08:02:02.383Z,1.00
2023-02-26T08:04:52.173Z,1.00
2023-02-26T08:07:41.767Z,1.00
2023-02-26T08:10:31.485Z,1.00
2023-02-26T08:13:21.407Z,1.20
2023-02-26T08:16:12.530Z,1.30
2023-02-26T08:19:02.510Z,1.40
2023-02-26T08:21:52.320Z,1.50
2023-02-26T08:24:41.687Z,1.80
2023-02-26T08:27:31.576Z,1.80
2023-02-26T08:30:21.565Z,2.00
2023-02-26T08:33:12.565Z,2.10
2023-02-26T08:36:02.372Z,2.00
2023-02-26T08:38:51.923Z,1.90
2023-02-26T08:41:41.443Z,2.00
2023-02-26T08:44:31.371Z,2.00
2023-02-26T08:47:28.425Z,2.00
2023-02-26T08:50:20.581Z,1.80
2023-02-26T08:53:10.189Z,1.60
2023-02-26T08:55:59.689Z,1.80
2023-02-26T08:58:49.390Z,2.00
2023-02-26T09:01:38.840Z,1.70
2023-02-26T09:04:31.035Z,1.70
2023-02-26T09:07:22.147Z,1.70
2023-02-26T09:10:13.798Z,1.80
2023-02-26T09:13:03.346Z,1.60
2023-02-26T09:15:53.015Z,1.70
2023-02-26T09:18:42.617Z,1.80
2023-02-26T09:21:43.293Z,1.90
2023-02-26T09:24:43.691Z,1.90
2023-02-26T09:27:40.783Z,1.90
2023-02-26T09:30:30.435Z,1.70
2023-02-26T09:33:20.021Z,1.70
2023-02-26T09:36:10.459Z,2.00
2023-02-26T09:39:00.008Z,2.10
2023-02-26T09:41:54.871Z,2.10
2023-02-26T09:44:45.187Z,2.10
2023-02-26T09:47:42.247Z,2.20
2023-02-26T09:50:41.228Z,2.10
2023-02-26T09:53:34.748Z,2.30
2023-02-26T09:56:27.081Z,2.30
2023-02-26T09:59:18.417Z,2.20
2023-02-26T10:02:17.954Z,2.10
2023-02-26T10:05:20.499Z,2.00
2023-02-26T10:08:17.301Z,1.90
2023-02-26T10:11:24.896Z,1.80
2023-02-26T10:14:21.014Z,1.90
2023-02-26T10:17:18.899Z,1.80
2023-02-26T10:20:17.862Z,1.60
2023-02-26T10:23:14.937Z,1.60
2023-02-26T10:26:11.787Z,1.50
2023-02-26T10:29:09.407Z,1.60
2023-02-26T10:32:11.468Z,1.50
2023-02-26T10:35:07.541Z,1.60
2023-02-26T10:38:01.344Z,1.80
2023-02-26T10:40:55.876Z,2.00
2023-02-26T10:43:51.077Z,2.00
2023-02-26T10:46:58.457Z,2.10
2023-02-26T10:50:03.429Z,2.70
2023-02-26T10:52:54.688Z,2.60
2023-02-26T10:55:48.899Z,2.50
2023-02-26T10:58:39.361Z,2.70
2023-02-26T11:01:31.472Z,2.60
2023-02-26T11:04:25.331Z,2.50
2023-02-26T11:07:16.788Z,2.80
2023-02-26T11:10:07.321Z,2.50
2023-02-26T11:12:57.658Z,2.20
2023-02-26T11:15:51.679Z,2.10
2023-02-26T11:18:45.559Z,1.70
2023-02-26T11:21:42.124Z,1.90
2023-02-26T11:24:37.046Z,1.80
2023-02-26T11:27:33.194Z,1.60
2023-02-26T11:30:24.417Z,1.80
2023-02-26T11:33:20.036Z,1.60
2023-02-26T11:36:13.610Z,1.60
2023-02-26T11:39:10.897Z,1.60
2023-02-26T11:42:04.462Z,1.70
2023-02-26T11:44:54.903Z,1.70
2023-02-26T11:47:46.131Z,1.50
2023-02-26T11:50:43.434Z,1.30
2023-02-26T11:53:36.869Z,1.30
2023-02-26T11:56:31.915Z,1.20
2023-02-26T11:59:25.136Z,1.20
2023-02-26T12:02:17.109Z,1.20
2023-02-26T12:05:09.909Z,1.20
2023-02-26T12:08:00.239Z,1.10
2023-02-26T12:11:08.259Z,1.10
2023-02-26T12:14:09.853Z,1.20
2023-02-26T12:17:13.967Z,1.10
2023-02-26T12:20:20.126Z,1.10
2023-02-26T12:23:35.612Z,1.00
2023-02-26T12:26:31.404Z,1.10
2023-02-26T12:29:50.459Z,1.10
2023-02-26T12:32:59.352Z,1.20
2023-02-26T12:36:02.130Z,1.30
2023-02-26T12:39:01.558Z,1.10
2023-02-26T12:42:05.803Z,1.20
2023-02-26T12:45:17.239Z,1.20
2023-02-26T12:48:42.592Z,1.20
2023-02-26T12:51:48.371Z,1.10
2023-02-26T12:54:54.638Z,1.20
2023-02-26T12:58:17.449Z,1.40
2023-02-26T13:01:22.213Z,1.30
2023-02-26T13:04:34.682Z,1.40
2023-02-26T13:08:03.320Z,1.60
2023-02-26T13:11:03.338Z,1.30
2023-02-26T13:14:09.094Z,1.30
2023-02-26T13:17:09.536Z,1.10
2023-02-26T13:20:05.104Z,1.10
2023-02-26T13:23:01.694Z,1.10
2023-02-26T13:25:56.052Z,1.30
2023-02-26T13:28:55.153Z,1.20
2023-02-26T13:31:51.267Z,1.10
2023-02-26T13:34:46.927Z,1.10
2023-02-26T13:37:43.215Z,1.20
2023-02-26T13:40:50.877Z,1.30
2023-02-26T13:43:55.373Z,1.30
2023-02-26T13:47:09.722Z,1.40
2023-02-26T13:50:27.177Z,1.20
2023-02-26T13:53:59.001Z,1.20
2023-02-26T13:57:09.064Z,1.20
2023-02-26T14:00:13.595Z,1.40
2023-02-26T14:03:17.297Z,1.60
2023-02-26T14:06:29.211Z,1.40
2023-02-26T14:09:57.235Z,1.60
2023-02-26T14:13:00.879Z,1.70
2023-02-26T14:16:04.551Z,1.60
2023-02-26T14:19:04.403Z,1.70
2023-02-26T14:21:59.508Z,1.80
2023-02-26T14:25:01.279Z,1.80
2023-02-26T14:27:53.664Z,1.90
2023-02-26T14:30:54.622Z,2.00
2023-02-26T14:33:52.332Z,2.00
2023-02-26T14:36:49.530Z,2.00
2023-02-26T14:39:46.231Z,2.00
2023-02-26T14:42:45.431Z,1.90
2023-02-26T14:45:42.260Z,1.90
2023-02-26T14:48:33.809Z,1.80
2023-02-26T14:51:39.328Z,1.60
2023-02-26T14:54:58.916Z,1.60
2023-02-26T14:58:02.082Z,1.50
2023-02-26T15:00:56.683Z,1.30
2023-02-26T15:04:20.343Z,1.40
2023-02-26T15:07:34.193Z,1.50
2023-02-26T15:10:42.081Z,1.50
2023-02-26T15:13:58.775Z,1.40
2023-02-26T15:16:59.828Z,1.30
2023-02-26T15:20:07.310Z,1.30
2023-02-26T15:23:14.220Z,1.40
2023-02-26T15:26:09.336Z,1.40
2023-02-26T15:29:04.553Z,1.40
2023-02-26T15:31:59.841Z,1.30
2023-02-26T15:34:52.512Z,1.40
2023-02-26T15:37:44.850Z,1.20
2023-02-26T15:40:45.425Z,1.20
2023-02-26T15:43:39.441Z,1.20
2023-02-26T15:46:37.470Z,1.10
2023-02-26T15:49:32.376Z,1.00
2023-02-26T15:52:27.090Z,1.00
2023-02-26T15:55:20.443Z,1.00
2023-02-26T15:58:14.681Z,0.90
2023-02-26T16:01:08.631Z,0.70
2023-02-26T16:04:05.073Z,0.70
2023-02-26T16:06:58.651Z,0.60
2023-02-26T16:09:52.244Z,0.40
2023-02-26T16:12:49.979Z,0.00
2023-02-26T16:15:43.531Z,-0.40
2023-02-26T16:18:37.512Z,-0.70
2023-02-26T16:21:37.371Z,-0.90
2023-02-26T16:24:32.123Z,-1.10
2023-02-26T16:27:24.461Z,-1.30
2023-02-26T16:30:26.406Z,-1.50
2023-02-26T16:33:19.896Z,-1.60
2023-02-26T16:36:26.619Z,-1.70
2023-02-26T16:40:26.453Z,-1.60
2023-02-26T16:43:57.241Z,-1.50
2023-02-26T16:46:52.900Z,-1.30
2023-02-26T16:49:46.400Z,-1.20
2023-02-26T16:52:39.908Z,-1.10
2023-02-26T16:55:35.220Z,-1.10
2023-02-26T16:58:28.623Z,-1.10
2023-02-26T17:01:28.083Z,-1.40
2023-02-26T17:04:23.604Z,-1.50
2023-02-26T17:07:28.596Z,-1.60
2023-02-26T17:10:28.229Z,-1.50
2023-02-26T17:13:24.792Z,-1.50
2023-02-26T17:16:20.372Z,-1.70
2023-02-26T17:19:15.531Z,-1.80
2023-02-26T17:22:08.224Z,-1.70
2023-02-26T17:25:00.142Z,-1.80
2023-02-26T17:27:56.981Z,-1.60
2023-02-26T17:30:49.268Z,-1.50
2023-02-26T17:33:46.023Z,-1.50
2023-02-26T17:36:47.594Z,-1.50
2023-02-26T17:39:40.415Z,-1.60
2023-02-26T17:42:36.408Z,-1.50
2023-02-26T17:45:32.323Z,-1.50
2023-02-26T17:48:28.898Z,-1.50
2023-02-26T17:51:21.227Z,-1.60
2023-02-26T17:54:17.473Z,-1.40
2023-02-26T17:57:12.207Z,-1.30
2023-02-26T18:00:04.111Z,-1.30
2023-02-26T18:02:56.454Z,-1.20
2023-02-26T18:05:50.587Z,-1.10
2023-02-26T18:08:45.774Z,-1.00
2023-02-26T18:11:43.629Z,-1.00
2023-02-26T18:14:34.798Z,-0.90
2023-02-26T18:17:28.140Z,-0.90
2023-02-26T18:20:31.760Z,-0.90
2023-02-26T18:23:24.911Z,-0.80
2023-02-26T18:26:21.471Z,-0.80
2023-02-26T18:29:15.202Z,-0.80
2023-02-26T18:32:10.070Z,-0.70
2023-02-26T18:35:02.679Z,-0.70
2023-02-26T18:37:56.975Z,-0.70
2023-02-26T18:40:49.255Z,-0.60
2023-02-26T18:43:45.730Z,-0.70
2023-02-26T18:46:41.999Z,-0.70
2023-02-26T18:49:35.152Z,-0.70
2023-02-26T18:52:27.638Z,-0.80
2023-02-26T18:55:20.130Z,-0.70
2023-02-26T18:58:12.690Z,-0.70
2023-02-26T19:01:09.136Z,-0.70
2023-02-26T19:04:06.394Z,-0.70
2023-02-26T19:06:58.111Z,-0.70
2023-02-26T19:09:50.483Z,-0.60
2023-02-26T19:12:44.951Z,-0.70
2023-02-26T19:15:38.055Z,-0.80
2023-02-26T19:18:33.401Z,-0.60
2023-02-26T19:21:28.615Z,-0.70
2023-02-26T19:24:28.601Z,-0.60
2023-02-26T19:27:24.990Z,-0.70
2023-02-26T19:30:19.358Z,-0.70
2023-02-26T19:33:11.533Z,-0.70
2023-02-26T19:36:05.618Z,-0.70
2023-02-26T19:38:59.371Z,-0.60
2023-02-26T19:41:54.335Z,-0.70
2023-02-26T19:44:50.633Z,-0.60
2023-02-26T19:47:44.383Z,-0.50
2023-02-26T19:51:00.547Z,-0.50
2023-02-26T19:54:01.354Z,-0.40
2023-02-26T19:56:53.716Z,-0.50
2023-02-26T19:59:49.564Z,-0.60
2023-02-26T20:02:42.064Z,-0.50
2023-02-26T20:05:36.821Z,-0.40
2023-02-26T20:08:32.606Z,-0.40
2023-02-26T20:11:30.129Z,-0.60
2023-02-26T20:14:23.297Z,-0.50
2023-02-26T20:17:18.776Z,-0.50
2023-02-26T20:20:12.642Z,-0.60
2023-02-26T20:23:07.335Z,-0.60
2023-02-26T20:26:02.168Z,-0.60
2023-02-26T20:29:06.427Z,-0.70
2023-02-26T20:32:01.594Z,-0.60
2023-02-26T20:34:54.598Z,-0.60
2023-02-26T20:37:49.289Z,-0.60
2023-02-26T20:40:42.623Z,-0.50
2023-02-26T20:43:36.653Z,-0.50
2023-02-26T20:46:39.092Z,-0.40
2023-02-26T20:49:35.281Z,-0.40
2023-02-26T20:52:29.832Z,-0.40
2023-02-26T20:55:24.804Z,-0.50
2023-02-26T20:58:18.346Z,-0.50
2023-02-26T21:01:10.922Z,-0.40
2023-02-26T21:04:10.054Z,-0.40
2023-02-26T21:07:16.034Z,-0.40
2023-02-26T21:10:11.639Z,-0.40
2023-02-26T21:13:04.510Z,-0.30
2023-02-26T21:15:58.672Z,-0.40
2023-02-26T21:18:55.848Z,-0.30
2023-02-26T21:21:50.232Z,-0.30
2023-02-26T21:24:40.593Z,-0.30
2023-02-26T21:27:32.801Z,-0.40
2023-02-26T21:30:24.735Z,-0.30
2023-02-26T21:33:15.385Z,-0.30
2023-02-26T21:36:08.892Z,-0.30
2023-02-26T21:39:02.173Z,-0.30
2023-02-26T21:41:52.686Z,-0.30
2023-02-26T21:44:43.424Z,-0.30
2023-02-26T21:47:34.030Z,-0.30
2023-02-26T21:50:24.894Z,-0.30
2023-02-26T21:53:14.825Z,-0.20
2023-02-26T21:56:06.610Z,-0.30
2023-02-26T21:58:56.270Z,-0.30
2023-02-26T22:01:46.804Z,-0.30
2023-02-26T22:04:37.060Z,-0.30
2023-02-26T22:07:27.261Z,-0.30
2023-02-26T22:10:17.789Z,-0.40
2023-02-26T22:13:09.709Z,-0.50
2023-02-26T22:16:00.115Z,-0.50
2023-02-26T22:18:50.287Z,-0.50
2023-02-26T22:21:41.337Z,-0.50
2023-02-26T22:24:31.706Z,-0.50
2023-02-26T22:27:23.251Z,-0.60
2023-02-26T22:30:17.331Z,-0.70
2023-02-26T22:33:07.231Z,-0.80
2023-02-26T22:35:59.616Z,-1.00
2023-02-26T22:38:49.593Z,-1.10
2023-02-26T22:41:40.000Z,-1.30
2023-02-26T22:44:30.053Z,-1.40
2023-02-26T22:47:21.826Z,-1.50
2023-02-26T22:50:13.704Z,-1.70
2023-02-26T22:53:04.916Z,-1.80
2023-02-26T22:55:55.949Z,-2.00
2023-02-26T22:58:46.461Z,-2.20
2023-02-26T23:01:36.831Z,-2.30
2023-02-26T23:04:29.602Z,-2.50
2023-02-26T23:07:20.053Z,-2.70
2023-02-26T23:10:12.819Z,-2.70
2023-02-26T23:13:03.415Z,-2.90
2023-02-26T23:15:54.148Z,-3.00
2023-02-26T23:18:46.065Z,-3.10
2023-02-26T23:21:38.016Z,-3.30
2023-02-26T23:24:28.131Z,-3.20
2023-02-26T23:27:18.498Z,-3.10
2023-02-26T23:30:10.127Z,-3.40
2023-02-26T23:33:00.026Z,-3.40
2023-02-26T23:35:50.172Z,-3.50
2023-02-26T23:38:42.236Z,-3.80
2023-02-26T23:41:49.041Z,-3.40
2023-02-26T23:48:03.185Z,-3.70
2023-02-26T23:50:53.792Z,-3.70
2023-02-26T23:53:45.446Z,-4.10
2023-02-26T23:56:35.374Z,-3.80
2023-02-26T23:59:25.049Z,-3.90
